Tenjinmaru No11 — JD3353 — position and weather

sailwx.info

Track history (hours):
 
Tides and Currents Weather Stations Pressure Air Temp Water Temp Dewpoint Dewpoint Depression Visibility Wind Speed Wind Dir Waves Ship Positions

Tenjinmaru No11

Last reported at 2014-Jul-25 13:25 UTC. Time now 2014-Jul-25 20:48 UTC.
Position N 34°04' E 134°48'.

Length 75 m; draft 4.2 m.

Type: Cargo ship. MMSI: 431003485.

Date/timePositionNaut miles runAvg speedWind from/ knotsBaromVisibWave heightAir tempDewpointWater temp
2014-Jul-25 13:25N 34°04' E 134°48'  
2014-Jul-22 20:23N 34°37' E 135°01'1011.9
2014-Jul-22 19:33N 34°34' E 135°13'1010.4
2014-Jul-22 18:33N 34°31' E 135°24'0 0.0
2014-Jul-22 09:20N 34°31' E 135°24'0 0.0
2014-Jul-22 08:33N 34°31' E 135°24'0 0.0
2014-Jul-22 07:31N 34°31' E 135°24'0 0.0
2014-Jul-22 06:33N 34°31' E 135°24'8 7.7
2014-Jul-22 05:33N 34°29' E 135°15'1211.9
2014-Jul-22 04:32N 34°20' E 135°05'5 5.5
2014-Jul-22 03:33N 34°15' E 135°07'0 0.0
2014-Jul-22 02:33N 34°15' E 135°07'0 0.0
2014-Jul-22 01:33N 34°15' E 135°07'0 0.0
2014-Jul-22 00:33N 34°15' E 135°07'0 0.0
2014-Jul-21 23:33N 34°15' E 135°07'0 0.0
2014-Jul-21 22:33N 34°15' E 135°07'3 3.0
2014-Jul-21 21:33N 34°15' E 135°03'1111.0
2014-Jul-21 20:33N 34°25' E 135°10'311.5
2014-Jul-21 20:17N 34°27' E 135°12'911.6
2014-Jul-21 19:32N 34°32' E 135°21'3 3.2
2014-Jul-21 18:33N 34°31' E 135°24'0 0.0
2014-Jul-21 17:33N 34°31' E 135°24'0 0.0
2014-Jul-21 16:33N 34°31' E 135°24'0 0.0
2014-Jul-21 15:33N 34°31' E 135°24'0 0.0
2014-Jul-21 14:33N 34°31' E 135°24'0 0.0
2014-Jul-21 13:33N 34°31' E 135°24'0 0.0
2014-Jul-21 12:33N 34°31' E 135°24'0 0.0
2014-Jul-21 11:33N 34°31' E 135°24'0 0.0
2014-Jul-21 10:33N 34°31' E 135°24'0 0.0
2014-Jul-21 09:33N 34°31' E 135°24'0 0.0
2014-Jul-21 08:33N 34°31' E 135°24'0 0.0
2014-Jul-21 07:33N 34°31' E 135°24'0 0.0
2014-Jul-21 06:33N 34°31' E 135°24'0 0.0
2014-Jul-21 05:33N 34°31' E 135°24'0 0.0
2014-Jul-21 04:33N 34°31' E 135°24'0 0.0
2014-Jul-21 03:33N 34°31' E 135°24'0 0.0
2014-Jul-21 02:33N 34°31' E 135°24'0 0.2
2014-Jul-21 01:33N 34°31' E 135°25'0 0.0
2014-Jul-21 00:33N 34°31' E 135°25'0 0.0
2014-Jul-20 23:33N 34°31' E 135°25'0 0.0
2014-Jul-20 22:33N 34°31' E 135°25'0 0.0
2014-Jul-20 21:33N 34°31' E 135°25'0 0.0
2014-Jul-20 20:33N 34°31' E 135°25'0 0.0
2014-Jul-20 19:33N 34°31' E 135°25'0 0.0
2014-Jul-20 18:33N 34°31' E 135°25'0 0.0
2014-Jul-20 17:33N 34°31' E 135°25'0 0.0
2014-Jul-20 16:32N 34°31' E 135°25'0 0.0
2014-Jul-20 15:12N 34°31' E 135°25'0 0.0
2014-Jul-20 14:33N 34°31' E 135°25'0 0.0
2014-Jul-20 13:30N 34°31' E 135°25'0 0.0
2014-Jul-20 12:14N 34°31' E 135°25'0 0.0
2014-Jul-20 10:33N 34°31' E 135°25'0 0.0
2014-Jul-20 09:09N 34°31' E 135°25'0 0.0
2014-Jul-20 08:32N 34°31' E 135°25'0 0.0
2014-Jul-20 07:32N 34°31' E 135°25'0 0.0
2014-Jul-20 06:33N 34°31' E 135°25'0 0.0
2014-Jul-20 05:32N 34°31' E 135°25'0 0.0
2014-Jul-20 04:33N 34°31' E 135°25'0 0.0
2014-Jul-20 03:33N 34°31' E 135°25'0 0.0
2014-Jul-20 02:33N 34°31' E 135°25'0 0.0
2014-Jul-20 01:33N 34°31' E 135°25'0 0.0
2014-Jul-20 00:33N 34°31' E 135°25'0 0.0
2014-Jul-19 23:33N 34°31' E 135°25'3 2.7
2014-Jul-19 22:33N 34°32' E 135°21'1211.8
2014-Jul-19 21:33N 34°25' E 135°09'1310.8
2014-Jul-19 20:22N 34°16' E 134°59'226 9.5
2014-Jul-18 20:30N 35°01' E 139°28'1112.1
2014-Jul-18 19:33N 35°07' E 139°40'1111.4
2014-Jul-18 18:33N 35°17' E 139°45'8 7.6
2014-Jul-18 17:33N 35°24' E 139°48'5 5.0
2014-Jul-18 16:33N 35°22' E 139°54'0 0.0
2014-Jul-18 15:33N 35°22' E 139°54'0 0.0
2014-Jul-18 14:33N 35°22' E 139°54'0 0.0
2014-Jul-18 13:33N 35°22' E 139°54'0 0.0
2014-Jul-18 12:33N 35°22' E 139°54'0 0.0
2014-Jul-18 11:33N 35°22' E 139°54'0 0.0
2014-Jul-18 10:33N 35°22' E 139°54'1 1.3
2014-Jul-18 09:33N 35°22' E 139°52'1010.1
2014-Jul-18 08:33N 35°32' E 139°54'8 8.3
2014-Jul-18 07:33N 35°40' E 139°56'0 0.0
2014-Jul-18 06:33N 35°40' E 139°56'0 0.0
2014-Jul-18 05:33N 35°40' E 139°56'0 0.0
2014-Jul-18 04:33N 35°40' E 139°56'0 0.0
2014-Jul-18 03:33N 35°40' E 139°56'0 0.0
2014-Jul-18 02:33N 35°40' E 139°56'0 0.0
2014-Jul-18 01:33N 35°40' E 139°56'0 0.0
2014-Jul-18 00:33N 35°40' E 139°56'0 0.0
2014-Jul-17 23:33N 35°40' E 139°56'2 2.5
2014-Jul-17 22:33N 35°38' E 139°58'1 1.3
2014-Jul-17 21:33N 35°37' E 139°58'0 0.0
2014-Jul-17 20:33N 35°37' E 139°58'0 0.0
2014-Jul-17 19:33N 35°37' E 139°58'0 0.1
2014-Jul-17 18:33N 35°37' E 139°58'0 0.0
2014-Jul-17 17:33N 35°37' E 139°58'0 0.0
2014-Jul-17 16:33N 35°37' E 139°58'0 0.0
2014-Jul-17 15:33N 35°37' E 139°58'3 3.3
2014-Jul-17 14:33N 35°35' E 139°56'1111.2
2014-Jul-17 13:33N 35°26' E 139°48'10 9.7
2014-Jul-17 12:33N 35°16' E 139°46'1010.2
2014-Jul-17 11:33N 35°06' E 139°42'6111.8
2014-Jul-17 06:25N 34°34' E 138°39'191 9.6
2014-Jul-16 10:22N 34°04' E 134°50'  
Track history (hours):
 
Tides and Currents Weather Stations Pressure Air Temp Water Temp Dewpoint Dewpoint Depression Visibility Wind Speed Wind Dir Waves Ship Positions

Tenjinmaru No11

Last reported at 2014-Jul-25 13:25 UTC. Time now 2014-Jul-25 20:48 UTC.
Position N 34°04' E 134°48'.

Length 75 m; draft 4.2 m.

Type: Cargo ship. MMSI: 431003485.

Date/timePositionNaut miles runAvg speedWind from/ knotsBaromVisibWave heightAir tempDewpointWater temp
2014-Jul-25 13:25N 34°04' E 134°48'  
2014-Jul-22 20:23N 34°37' E 135°01'1011.9
2014-Jul-22 19:33N 34°34' E 135°13'1010.4
2014-Jul-22 18:33N 34°31' E 135°24'0 0.0
2014-Jul-22 09:20N 34°31' E 135°24'0 0.0
2014-Jul-22 08:33N 34°31' E 135°24'0 0.0
2014-Jul-22 07:31N 34°31' E 135°24'0 0.0
2014-Jul-22 06:33N 34°31' E 135°24'8 7.7
2014-Jul-22 05:33N 34°29' E 135°15'1211.9
2014-Jul-22 04:32N 34°20' E 135°05'5 5.5
2014-Jul-22 03:33N 34°15' E 135°07'0 0.0
2014-Jul-22 02:33N 34°15' E 135°07'0 0.0
2014-Jul-22 01:33N 34°15' E 135°07'0 0.0
2014-Jul-22 00:33N 34°15' E 135°07'0 0.0
2014-Jul-21 23:33N 34°15' E 135°07'0 0.0
2014-Jul-21 22:33N 34°15' E 135°07'3 3.0
2014-Jul-21 21:33N 34°15' E 135°03'1111.0
2014-Jul-21 20:33N 34°25' E 135°10'311.5
2014-Jul-21 20:17N 34°27' E 135°12'911.6
2014-Jul-21 19:32N 34°32' E 135°21'3 3.2
2014-Jul-21 18:33N 34°31' E 135°24'0 0.0
2014-Jul-21 17:33N 34°31' E 135°24'0 0.0
2014-Jul-21 16:33N 34°31' E 135°24'0 0.0
2014-Jul-21 15:33N 34°31' E 135°24'0 0.0
2014-Jul-21 14:33N 34°31' E 135°24'0 0.0
2014-Jul-21 13:33N 34°31' E 135°24'0 0.0
2014-Jul-21 12:33N 34°31' E 135°24'0 0.0
2014-Jul-21 11:33N 34°31' E 135°24'0 0.0
2014-Jul-21 10:33N 34°31' E 135°24'0 0.0
2014-Jul-21 09:33N 34°31' E 135°24'0 0.0
2014-Jul-21 08:33N 34°31' E 135°24'0 0.0
2014-Jul-21 07:33N 34°31' E 135°24'0 0.0
2014-Jul-21 06:33N 34°31' E 135°24'0 0.0
2014-Jul-21 05:33N 34°31' E 135°24'0 0.0
2014-Jul-21 04:33N 34°31' E 135°24'0 0.0
2014-Jul-21 03:33N 34°31' E 135°24'0 0.0
2014-Jul-21 02:33N 34°31' E 135°24'0 0.2
2014-Jul-21 01:33N 34°31' E 135°25'0 0.0
2014-Jul-21 00:33N 34°31' E 135°25'0 0.0
2014-Jul-20 23:33N 34°31' E 135°25'0 0.0
2014-Jul-20 22:33N 34°31' E 135°25'0 0.0
2014-Jul-20 21:33N 34°31' E 135°25'0 0.0
2014-Jul-20 20:33N 34°31' E 135°25'0 0.0
2014-Jul-20 19:33N 34°31' E 135°25'0 0.0
2014-Jul-20 18:33N 34°31' E 135°25'0 0.0
2014-Jul-20 17:33N 34°31' E 135°25'0 0.0
2014-Jul-20 16:32N 34°31' E 135°25'0 0.0
2014-Jul-20 15:12N 34°31' E 135°25'0 0.0
2014-Jul-20 14:33N 34°31' E 135°25'0 0.0
2014-Jul-20 13:30N 34°31' E 135°25'0 0.0
2014-Jul-20 12:14N 34°31' E 135°25'0 0.0
2014-Jul-20 10:33N 34°31' E 135°25'0 0.0
2014-Jul-20 09:09N 34°31' E 135°25'0 0.0
2014-Jul-20 08:32N 34°31' E 135°25'0 0.0
2014-Jul-20 07:32N 34°31' E 135°25'0 0.0
2014-Jul-20 06:33N 34°31' E 135°25'0 0.0
2014-Jul-20 05:32N 34°31' E 135°25'0 0.0
2014-Jul-20 04:33N 34°31' E 135°25'0 0.0
2014-Jul-20 03:33N 34°31' E 135°25'0 0.0
2014-Jul-20 02:33N 34°31' E 135°25'0 0.0
2014-Jul-20 01:33N 34°31' E 135°25'0 0.0
2014-Jul-20 00:33N 34°31' E 135°25'0 0.0
2014-Jul-19 23:33N 34°31' E 135°25'3 2.7
2014-Jul-19 22:33N 34°32' E 135°21'1211.8
2014-Jul-19 21:33N 34°25' E 135°09'1310.8
2014-Jul-19 20:22N 34°16' E 134°59'226 9.5
2014-Jul-18 20:30N 35°01' E 139°28'1112.1
2014-Jul-18 19:33N 35°07' E 139°40'1111.4
2014-Jul-18 18:33N 35°17' E 139°45'8 7.6
2014-Jul-18 17:33N 35°24' E 139°48'5 5.0
2014-Jul-18 16:33N 35°22' E 139°54'0 0.0
2014-Jul-18 15:33N 35°22' E 139°54'0 0.0
2014-Jul-18 14:33N 35°22' E 139°54'0 0.0
2014-Jul-18 13:33N 35°22' E 139°54'0 0.0
2014-Jul-18 12:33N 35°22' E 139°54'0 0.0
2014-Jul-18 11:33N 35°22' E 139°54'0 0.0
2014-Jul-18 10:33N 35°22' E 139°54'1 1.3
2014-Jul-18 09:33N 35°22' E 139°52'1010.1
2014-Jul-18 08:33N 35°32' E 139°54'8 8.3
2014-Jul-18 07:33N 35°40' E 139°56'0 0.0
2014-Jul-18 06:33N 35°40' E 139°56'0 0.0
2014-Jul-18 05:33N 35°40' E 139°56'0 0.0
2014-Jul-18 04:33N 35°40' E 139°56'0 0.0
2014-Jul-18 03:33N 35°40' E 139°56'0 0.0
2014-Jul-18 02:33N 35°40' E 139°56'0 0.0
2014-Jul-18 01:33N 35°40' E 139°56'0 0.0
2014-Jul-18 00:33N 35°40' E 139°56'0 0.0
2014-Jul-17 23:33N 35°40' E 139°56'2 2.5
2014-Jul-17 22:33N 35°38' E 139°58'1 1.3
2014-Jul-17 21:33N 35°37' E 139°58'0 0.0
2014-Jul-17 20:33N 35°37' E 139°58'0 0.0
2014-Jul-17 19:33N 35°37' E 139°58'0 0.1
2014-Jul-17 18:33N 35°37' E 139°58'0 0.0
2014-Jul-17 17:33N 35°37' E 139°58'0 0.0
2014-Jul-17 16:33N 35°37' E 139°58'0 0.0
2014-Jul-17 15:33N 35°37' E 139°58'3 3.3
2014-Jul-17 14:33N 35°35' E 139°56'1111.2
2014-Jul-17 13:33N 35°26' E 139°48'10 9.7
2014-Jul-17 12:33N 35°16' E 139°46'1010.2
2014-Jul-17 11:33N 35°06' E 139°42'6111.8
2014-Jul-17 06:25N 34°34' E 138°39'191 9.6
2014-Jul-16 10:22N 34°04' E 134°50'  

Dump ship's entire track history